createdAt,value
2023-01-25T00:02:04.642Z,102092.91
2023-01-25T00:07:08.215Z,102084.75
2023-01-25T00:12:11.938Z,102070.42
2023-01-25T00:17:15.461Z,102066.75
2023-01-25T00:22:18.868Z,102070.27
2023-01-25T00:27:22.590Z,102069.57
2023-01-25T00:32:38.108Z,102066.22
2023-01-25T00:37:44.476Z,102065.17
2023-01-25T00:42:47.876Z,102052.24
2023-01-25T00:47:55.657Z,102043.22
2023-01-25T00:52:59.006Z,102046.54
2023-01-25T00:58:02.426Z,102035.58
2023-01-25T01:03:06.034Z,102028.58
2023-01-25T01:08:09.563Z,102022.88
2023-01-25T01:13:13.068Z,102012.61
2023-01-25T01:18:16.783Z,102008.17
2023-01-25T01:23:21.016Z,102001.98
2023-01-25T01:28:24.223Z,101999.05
2023-01-25T01:33:29.079Z,102003.27
2023-01-25T01:38:33.303Z,101996.92
2023-01-25T01:43:36.594Z,101988.59
2023-01-25T01:48:55.183Z,101987.45
2023-01-25T01:54:09.758Z,101981.39
2023-01-25T01:59:13.990Z,101978.60
2023-01-25T02:04:19.328Z,101973.96
2023-01-25T02:09:26.549Z,101971.70
2023-01-25T02:14:30.974Z,101968.92
2023-01-25T02:19:54.470Z,101968.77
2023-01-25T02:25:13.862Z,101969.02
2023-01-25T02:30:17.784Z,101977.13
2023-01-25T02:35:24.775Z,101967.71
2023-01-25T02:40:31.778Z,101968.15
2023-01-25T02:45:35.396Z,101961.39
2023-01-25T02:50:38.823Z,101961.91
2023-01-25T02:55:42.324Z,101947.64
2023-01-25T03:00:45.735Z,101946.31
2023-01-25T03:05:49.460Z,101933.76
2023-01-25T03:11:00.651Z,101929.96
2023-01-25T03:16:07.921Z,101929.88
2023-01-25T03:21:15.707Z,101921.00
2023-01-25T03:26:22.376Z,101916.60
2023-01-25T03:31:25.875Z,101918.42
2023-01-25T03:36:29.521Z,101918.68
2023-01-25T03:41:33.212Z,101918.12
2023-01-25T03:46:36.649Z,101913.69
2023-01-25T03:51:40.247Z,101901.06
2023-01-25T03:56:43.760Z,101899.71
2023-01-25T04:01:47.282Z,101900.08
2023-01-25T04:06:50.942Z,101898.61
2023-01-25T04:11:54.525Z,101898.45
2023-01-25T04:16:58.026Z,101882.70
2023-01-25T04:22:02.470Z,101868.41
2023-01-25T04:27:06.499Z,101849.20
2023-01-25T04:32:10.192Z,101846.98
2023-01-25T04:37:13.937Z,101838.34
2023-01-25T04:42:17.253Z,101843.79
2023-01-25T04:47:20.871Z,101849.42
2023-01-25T04:52:24.273Z,101838.75
2023-01-25T04:57:27.896Z,101830.36
2023-01-25T05:02:31.347Z,101824.31
2023-01-25T05:07:34.924Z,101822.60
2023-01-25T05:12:38.537Z,101810.19
2023-01-25T05:17:42.059Z,101791.28
2023-01-25T05:22:45.671Z,101785.80
2023-01-25T05:27:49.603Z,101781.66
2023-01-25T05:32:53.113Z,101773.34
2023-01-25T05:38:00.372Z,101780.03
2023-01-25T05:43:03.931Z,101777.48
2023-01-25T05:48:07.553Z,101781.16
2023-01-25T05:53:10.963Z,101782.07
2023-01-25T05:58:14.373Z,101783.34
2023-01-25T06:03:18.046Z,101791.10
2023-01-25T06:08:21.616Z,101789.45
2023-01-25T06:13:25.669Z,101791.15
2023-01-25T06:18:31.536Z,101791.32
2023-01-25T06:23:35.024Z,101779.95
2023-01-25T06:28:39.174Z,101773.61
2023-01-25T06:33:43.702Z,101773.85
2023-01-25T06:38:51.207Z,101767.48
2023-01-25T06:43:57.684Z,101767.94
2023-01-25T06:49:01.307Z,101774.63
2023-01-25T06:54:04.933Z,101781.59
2023-01-25T06:59:10.897Z,101777.17
2023-01-25T07:04:14.414Z,101781.38
2023-01-25T07:09:23.975Z,101782.13
2023-01-25T07:14:27.481Z,101775.24
2023-01-25T07:19:31.099Z,101764.33
2023-01-25T07:24:34.719Z,101763.83
2023-01-25T07:29:38.248Z,101765.48
2023-01-25T07:34:41.851Z,101761.27
2023-01-25T07:39:50.804Z,101753.72
2023-01-25T07:44:54.315Z,101745.85
2023-01-25T07:49:57.928Z,101745.86
2023-01-25T07:55:01.567Z,101739.48
2023-01-25T08:00:10.792Z,101731.15
2023-01-25T08:05:14.548Z,101725.63
2023-01-25T08:10:18.541Z,101718.95
2023-01-25T08:15:23.086Z,101709.75
2023-01-25T08:20:26.905Z,101700.57
2023-01-25T08:25:30.422Z,101701.57
2023-01-25T08:30:34.828Z,101697.96
2023-01-25T08:35:38.275Z,101682.41
2023-01-25T08:40:41.785Z,101672.04
2023-01-25T08:45:45.918Z,101669.25
2023-01-25T08:50:49.439Z,101668.05
2023-01-25T08:55:52.950Z,101663.88
2023-01-25T09:01:03.688Z,101661.59
2023-01-25T09:06:08.533Z,101663.16
2023-01-25T09:11:14.781Z,101661.81
2023-01-25T09:16:28.981Z,101663.34
2023-01-25T09:21:33.676Z,101665.73
2023-01-25T09:26:41.618Z,101667.14
2023-01-25T09:31:45.432Z,101654.83
2023-01-25T09:36:49.338Z,101645.23
2023-01-25T09:42:06.766Z,101634.25
2023-01-25T09:47:46.743Z,101631.97
2023-01-25T09:53:11.356Z,101628.91
2023-01-25T09:58:20.174Z,101629.91
2023-01-25T10:03:49.516Z,101628.34
2023-01-25T10:09:13.407Z,101623.73
2023-01-25T10:14:19.577Z,101616.29
2023-01-25T10:19:40.000Z,101601.39
2023-01-25T10:25:20.992Z,101593.30
2023-01-25T10:30:36.409Z,101584.68
2023-01-25T10:35:48.106Z,101576.12
2023-01-25T10:41:05.023Z,101569.16
2023-01-25T10:46:25.819Z,101568.05
2023-01-25T10:51:35.724Z,101564.02
2023-01-25T10:56:40.347Z,101559.92
2023-01-25T11:01:44.633Z,101548.53
2023-01-25T11:06:50.584Z,101536.73
2023-01-25T11:11:56.224Z,101518.39
2023-01-25T11:17:02.068Z,101513.98
2023-01-25T11:22:19.024Z,101502.94
2023-01-25T11:27:26.150Z,101500.54
2023-01-25T11:32:29.807Z,101490.78
2023-01-25T11:37:39.192Z,101483.30
2023-01-25T11:43:14.981Z,101476.20
2023-01-25T11:48:35.682Z,101459.88
2023-01-25T11:54:01.418Z,101457.10
2023-01-25T11:59:29.307Z,101443.45
2023-01-25T12:04:41.218Z,101436.20
2023-01-25T12:10:03.062Z,101434.50
2023-01-25T12:15:15.696Z,101425.47
2023-01-25T12:20:45.628Z,101412.92
2023-01-25T12:26:06.960Z,101409.91
2023-01-25T12:31:16.397Z,101393.54
2023-01-25T12:36:37.438Z,101388.70
2023-01-25T12:41:46.399Z,101376.48
2023-01-25T12:47:21.035Z,101373.66
2023-01-25T12:52:37.856Z,101355.09
2023-01-25T12:58:06.358Z,101349.96
2023-01-25T13:03:30.863Z,101338.13
2023-01-25T13:08:50.252Z,101321.52
2023-01-25T13:13:53.971Z,101320.54
2023-01-25T13:18:58.999Z,101312.16
2023-01-25T13:24:22.471Z,101304.56
2023-01-25T13:29:38.923Z,101291.84
2023-01-25T13:34:42.863Z,101284.62
2023-01-25T13:39:50.105Z,101298.23
2023-01-25T13:45:21.070Z,101296.81
2023-01-25T13:50:29.566Z,101293.42
2023-01-25T13:55:44.912Z,101292.30
2023-01-25T14:01:07.156Z,101287.02
2023-01-25T14:06:41.151Z,101277.59
2023-01-25T14:11:55.702Z,101280.70
2023-01-25T14:17:34.433Z,101272.89
2023-01-25T14:22:38.260Z,101267.27
2023-01-25T14:27:43.621Z,101257.80
2023-01-25T14:32:48.465Z,101247.35
2023-01-25T14:37:51.892Z,101240.72
2023-01-25T14:42:57.132Z,101236.86
2023-01-25T14:48:00.545Z,101240.98
2023-01-25T14:53:20.139Z,101235.16
2023-01-25T14:58:25.719Z,101227.66
2023-01-25T15:03:31.475Z,101227.29
2023-01-25T15:08:39.399Z,101219.13
2023-01-25T15:13:42.802Z,101212.58
2023-01-25T15:18:54.404Z,101213.88
2023-01-25T15:24:05.010Z,101209.77
2023-01-25T15:29:23.864Z,101206.63
2023-01-25T15:34:32.721Z,101202.60
2023-01-25T15:39:36.578Z,101196.95
2023-01-25T15:44:40.143Z,101196.21
2023-01-25T15:49:43.564Z,101194.24
2023-01-25T15:54:56.073Z,101191.45
2023-01-25T16:00:06.592Z,101185.09
2023-01-25T16:05:10.797Z,101185.58
2023-01-25T16:10:23.955Z,101176.48
2023-01-25T16:15:27.449Z,101169.52
2023-01-25T16:20:31.577Z,101160.47
2023-01-25T16:25:35.096Z,101167.05
2023-01-25T16:30:38.940Z,101152.22
2023-01-25T16:35:42.333Z,101153.70
2023-01-25T16:40:45.847Z,101143.73
2023-01-25T16:45:49.492Z,101144.88
2023-01-25T16:50:53.083Z,101140.52
2023-01-25T16:55:58.959Z,101144.52
2023-01-25T17:01:09.365Z,101139.95
2023-01-25T17:06:25.746Z,101131.73
2023-01-25T17:11:29.789Z,101125.68
2023-01-25T17:16:33.911Z,101116.56
2023-01-25T17:21:37.627Z,101109.91
2023-01-25T17:26:41.454Z,101108.46
2023-01-25T17:31:45.055Z,101098.23
2023-01-25T17:36:50.639Z,101097.71
2023-01-25T17:41:54.245Z,101094.73
2023-01-25T17:46:57.661Z,101086.86
2023-01-25T17:52:03.126Z,101082.05
2023-01-25T17:57:06.637Z,101072.55
2023-01-25T18:02:11.652Z,101074.45
2023-01-25T18:07:15.512Z,101068.83
2023-01-25T18:12:20.530Z,101060.16
2023-01-25T18:17:24.179Z,101058.48
2023-01-25T18:22:29.129Z,101052.80
2023-01-25T18:27:32.642Z,101041.58
2023-01-25T18:32:36.157Z,101042.81
2023-01-25T18:37:43.769Z,101038.85
2023-01-25T18:42:47.292Z,101032.57
2023-01-25T18:47:51.322Z,101018.90
2023-01-25T18:52:56.057Z,101013.84
2023-01-25T18:58:04.298Z,101007.30
2023-01-25T19:03:07.824Z,101001.45
2023-01-25T19:08:11.414Z,100990.02
2023-01-25T19:13:14.929Z,100990.16
2023-01-25T19:18:18.347Z,100988.56
2023-01-25T19:23:21.858Z,100975.89
2023-01-25T19:28:25.395Z,100972.46
2023-01-25T19:33:28.891Z,100971.23
2023-01-25T19:38:33.632Z,100969.60
2023-01-25T19:43:37.459Z,100966.52
2023-01-25T19:48:42.367Z,100956.72
2023-01-25T19:53:48.940Z,100952.19
2023-01-25T19:58:52.611Z,100949.76
2023-01-25T20:04:02.431Z,100945.61
2023-01-25T20:09:05.989Z,100940.08
2023-01-25T20:14:12.601Z,100940.40
2023-01-25T20:19:16.091Z,100940.77
2023-01-25T20:24:19.847Z,100931.66
2023-01-25T20:29:24.353Z,100917.60
2023-01-25T20:34:27.871Z,100918.77
2023-01-25T20:39:31.383Z,100925.27
2023-01-25T20:44:35.004Z,100922.39
2023-01-25T20:49:38.723Z,100923.41
2023-01-25T20:54:42.952Z,100913.56
2023-01-25T20:59:46.367Z,100912.75
2023-01-25T21:04:49.778Z,100907.80
2023-01-25T21:09:53.303Z,100903.41
2023-01-25T21:14:56.913Z,100901.55
2023-01-25T21:20:00.540Z,100895.76
2023-01-25T21:25:04.486Z,100898.67
2023-01-25T21:30:09.842Z,100904.42
2023-01-25T21:35:13.537Z,100900.64
2023-01-25T21:40:17.467Z,100903.20
2023-01-25T21:45:39.640Z,100903.75
2023-01-25T21:51:01.871Z,100890.52
2023-01-25T21:56:05.894Z,100883.53
2023-01-25T22:01:10.286Z,100877.58
2023-01-25T22:06:13.848Z,100873.93
2023-01-25T22:11:17.361Z,100876.63
2023-01-25T22:16:21.797Z,100877.99
2023-01-25T22:21:28.927Z,100873.62
2023-01-25T22:26:59.784Z,100860.56
2023-01-25T22:32:03.382Z,100854.73
2023-01-25T22:37:06.886Z,100847.55
2023-01-25T22:42:10.302Z,100845.89
2023-01-25T22:47:13.816Z,100837.23
2023-01-25T22:52:17.247Z,100820.13
2023-01-25T22:57:20.743Z,100812.10
2023-01-25T23:02:24.267Z,100811.36
2023-01-25T23:07:27.773Z,100816.02
2023-01-25T23:12:31.187Z,100812.55
2023-01-25T23:17:53.341Z,100795.88
2023-01-25T23:22:57.370Z,100790.75
2023-01-25T23:28:00.791Z,100787.50
2023-01-25T23:33:04.601Z,100787.09
2023-01-25T23:38:15.489Z,100784.11
2023-01-25T23:43:18.918Z,100788.43
2023-01-25T23:48:22.623Z,100784.41
2023-01-25T23:53:27.688Z,100775.43
2023-01-25T23:58:31.090Z,100770.17
